Weather observations for the past three days for
Preston, Fillmore County Airport
Imperial (Metric)
Date Time (cdt) Wind (mph) Vis. (mi.) Weather Sky Cond. Temperature (ºF) Relative Humidity Wind Chill (°F) Heat Index (°F) Pressure Precipitation (in)
Air Dwpt 6 hour altimeter (in) sea level (mb) 1 hr 3 hr 6 hr
Max. Min.
08 04:55 S 9 10.00 Fair CLR 42.8 21.2 42% 38 29.81 0.0
08 04:35 S 8 10.00 Fair CLR 42.8 21.2 42% 39 29.81 0.0
08 04:15 S 8 10.00 Fair CLR 41 21.2 45% 36 29.81 0.0
08 03:55 S 8 10.00 Fair CLR 41 21.2 45% 36 29.81 0.0
08 03:35 S 8 10.00 Fair CLR 41 21.2 45% 36 29.82 0.0
08 03:15 S 8 10.00 Fair CLR 41 21.2 45% 36 29.82 0.0
08 02:55 S 8 10.00 Fair CLR 41 19.4 42% 36 29.82 0.0
08 02:35 S 9 10.00 Fair CLR 41 19.4 42% 36 29.83 0.0
08 02:15 S 8 10.00 Fair CLR 41 19.4 42% 36 29.83 0.0
08 01:55 S 7 10.00 Fair CLR 41 19.4 42% 37 29.83 0.0
08 01:35 S 7 10.00 Fair CLR 41 19.4 42% 37 29.83 0.0
08 01:15 SE 6 10.00 Fair CLR 42.8 17.6 36% 40 29.83 0.0
08 00:55 S 6 10.00 Fair CLR 42.8 17.6 36% 40 29.84 0.0
08 00:35 S 7 10.00 Fair CLR 42.8 19.4 39% 39 29.84 0.0
08 00:15 S 6 10.00 Fair CLR 44.6 19.4 37% 42 29.85 0.0
07 23:55 SE 6 10.00 Fair CLR 44.6 19.4 37% 42 29.85 0.0
07 23:35 SE 6 10.00 Fair CLR 44.6 19.4 37% 42 29.85 0.0
07 23:15 SE 6 10.00 Fair CLR 46.4 19.4 34% 44 29.85 0.0
07 22:55 SE 6 10.00 Fair CLR 44.6 19.4 37% 42 29.85 0.0
07 22:35 SE 6 10.00 Fair CLR 46.4 17.6 32% 44 29.85 0.0
07 22:15 E 7 10.00 Fair CLR 46.4 17.6 32% 43 29.84 0.0
07 21:55 E 6 9.00 Fair CLR 48.2 17.6 29% 46 29.84 0.0
07 21:35 NE 5 10.00 Fair CLR 48.2 17.6 29% 47 29.84 0.0
07 21:15 NE 5 10.00 Fair CLR 48.2 17.6 29% 47 29.83 0.0
07 20:55 NE 5 8.00 Fair CLR 48.2 17.6 29% 47 29.83 0.0
07 20:35 NE 5 10.00 Fair CLR 51.8 17.6 26% 29.82 0.0
07 20:15 N 6 10.00 Fair CLR 51.8 17.6 26% 29.82 0.0
07 19:55 N 7 10.00 Fair CLR 53.6 17.6 24% 29.82 0.0
07 19:35 NW 9 10.00 Fair CLR 55.4 17.6 23% 29.81 0.0
07 19:15 NW 9 10.00 Fair CLR 55.4 17.6 23% 29.81 0.0
07 18:55 NW 12 10.00 Fair CLR 57.2 15.8 20% 29.81 0.0
07 18:35 NW 13 G 20 10.00 Fair CLR 57.2 17.6 21% 29.81 0.0
07 18:15 NW 17 G 23 10.00 Fair CLR 57.2 15.8 20% 29.81 0.0
07 17:55 NW 14 G 21 10.00 Fair CLR 57.2 15.8 20% 29.82 0.0
07 17:35 NW 16 G 23 10.00 Fair CLR 57.2 15.8 20% 29.81 0.0
07 17:15 W 12 G 20 10.00 Fair CLR 57.2 15.8 20% 29.82 0.0
07 16:55 NW 16 G 23 10.00 Fair CLR 59 17.6 20% 29.81 0.0
07 16:35 NW 10 G 18 10.00 Fair CLR 57.2 17.6 21% 29.81 0.0
07 16:15 NW 14 G 25 10.00 Fair CLR 57.2 17.6 21% 29.81 0.0
07 15:55 NW 15 G 23 10.00 Fair CLR 57.2 17.6 21% 29.82 0.0
07 15:35 W 12 G 23 10.00 Fair CLR 57.2 17.6 21% 29.82 0.0
07 15:15 Vrbl 5 G 20 10.00 Fair CLR 57.2 19.4 23% 29.83 0.0
07 14:55 NW 13 G 20 10.00 Fair CLR 55.4 19.4 24% 29.84 0.0
07 14:35 W 16 G 28 10.00 Fair CLR 55.4 21.2 26% 29.83 0.0
07 14:15 NW 12 G 28 10.00 Fair CLR 55.4 19.4 24% 29.84 0.0
07 13:55 NW 12 10.00 Fair CLR 55.4 21.2 26% 29.84 0.0
07 13:35 NW 13 G 21 10.00 Fair CLR 55.4 21.2 26% 29.84 0.0
07 13:15 W 14 G 20 10.00 Fair CLR 53.6 23 30% 29.84 0.0
07 12:55 NW 16 10.00 Fair CLR 53.6 24.8 33% 29.85 0.0
07 12:35 NW 14 10.00 Fair CLR 53.6 24.8 33% 29.86 0.0
07 12:15 NW 12 G 21 10.00 Fair CLR 53.6 24.8 33% 29.86 0.0
07 11:55 N 14 10.00 Fair CLR 51.8 26.6 38% 29.86 0.0
07 11:35 N 10 10.00 Fair CLR 51.8 26.6 38% 29.87 0.0
07 11:15 N 8 10.00 Fair CLR 50 26.6 40% 47 29.87 0.0
07 10:55 Vrbl 6 G 17 10.00 Fair CLR 50 26.6 40% 48 29.87 0.0
07 10:35 Vrbl 6 10.00 Fair CLR 48.2 26.6 43% 46 29.87 0.0
07 10:15 Vrbl 6 10.00 Fair CLR 48.2 24.8 40% 46 29.88 0.0
07 09:55 NE 8 10.00 Fair CLR 48.2 24.8 40% 45 29.88 0.0
07 09:35 Vrbl 6 10.00 Fair CLR 46.4 24.8 43% 44 29.89 0.0
07 09:15 NE 5 10.00 A Few Clouds FEW060 FEW070 44.6 26.6 49% 43 29.9 0.0
07 08:55 N 6 10.00 Mostly Cloudy BKN070 BKN085 42.8 26.6 53% 40 29.91 0.0
07 08:35 N 6 10.00 Partly Cloudy FEW065 SCT085 41 28.4 61% 38 29.9 0.0
07 08:15 N 5 10.00 Mostly Cloudy BKN070 39.2 28.4 65% 36 29.91 0.0
07 07:55 N 5 10.00 Overcast SCT065 BKN075 OVC090 39.2 28.4 65% 36 29.91 0.0
07 07:35 Calm 10.00 Overcast BKN065 OVC075 37.4 26.6 65% 29.9 0.0
07 07:15 NE 3 10.00 Overcast FEW044 FEW055 OVC065 35.6 28.4 75% 29.9 0.0
07 06:55 Calm 10.00 Overcast FEW044 SCT070 OVC085 35.6 30.2 81% 29.9 0.0
07 06:35 Calm 10.00 Mostly Cloudy SCT060 BKN075 BKN085 35.6 26.6 70% 29.9 0.0
07 06:15 Calm 10.00 Overcast SCT060 OVC070 33.8 26.6 75% 29.9 0.0
07 05:55 Calm 10.00 Overcast OVC070 35.6 24.8 65% 29.9 0.0
07 05:35 S 6 10.00 Mostly Cloudy FEW060 BKN075 BKN090 35.6 24.8 65% 31 29.9 0.0
07 05:15 S 9 10.00 Partly Cloudy SCT070 35.6 24.8 65% 29 29.9 0.0
07 04:55 S 6 10.00 Fair CLR 35.6 24.8 65% 31 29.91 0.0
07 04:35 S 7 10.00 Mostly Cloudy FEW038 FEW048 BKN060 37.4 24.8 60% 33 29.91 0.0
07 04:15 S 6 10.00 Overcast FEW034 BKN060 OVC070 37.4 24.8 60% 33 29.92 0.0
07 03:55 S 8 10.00 Overcast FEW039 FEW049 OVC070 37.4 24.8 60% 32 29.92 0.0
07 03:35 SW 7 10.00 Mostly Cloudy FEW039 SCT048 BKN060 37.4 24.8 60% 33 29.93 0.0
07 03:15 S 7 10.00 Overcast BKN060 OVC070 37.4 24.8 60% 33 29.94 0.0
07 02:55 S 7 10.00 Overcast SCT060 OVC070 37.4 24.8 60% 33 29.94 0.0
07 02:35 S 6 10.00 Overcast FEW046 SCT060 OVC070 35.6 24.8 65% 31 29.94 0.0
07 02:15 S 7 10.00 Overcast BKN065 OVC075 35.6 24.8 65% 31 29.94 0.0
07 01:55 S 7 10.00 Overcast OVC070 33.8 26.6 75% 28 29.95 0.0
07 01:35 S 6 10.00 Overcast OVC070 33.8 24.8 70% 29 29.95 0.0
07 01:15 S 5 10.00 Overcast OVC070 35.6 23 60% 32 29.95 0.0
07 00:55 Calm 10.00 Overcast OVC075 33.8 24.8 70% 29.95 0.0
07 00:35 SE 3 10.00 Overcast OVC075 33.8 23 65% 29.96 0.0
07 00:15 Calm 10.00 Mostly Cloudy BKN075 33.8 23 65% 29.96 0.0
06 23:55 Calm 10.00 Fair CLR 33.8 23 65% 29.96 0.0
06 23:35 S 5 10.00 Fair CLR 35.6 23 60% 32 29.96 0.0
06 23:15 S 6 10.00 Fair CLR 33.8 23 65% 29 29.97 0.0
06 22:55 S 6 10.00 Fair CLR 37.4 23 56% 33 29.97 0.0
06 22:35 S 3 10.00 Fair CLR 37.4 23 56% 29.98 0.0
06 22:15 Calm 10.00 Fair CLR 37.4 23 56% 29.98 0.0
06 21:55 Calm 10.00 Fair CLR 37.4 23 56% 29.98 0.0
06 21:35 NW 5 10.00 Fair CLR 37.4 23 56% 34 29.98 0.0
06 21:15 NW 5 10.00 Fair CLR 37.4 23 56% 34 29.98 0.0
06 20:55 NW 3 10.00 Fair CLR 39.2 23 52% 29.97 0.0
06 20:35 NW 6 10.00 Fair CLR 39.2 23 52% 36 29.97 0.0
06 20:15 NW 8 10.00 Fair CLR 42.8 23 46% 39 29.97 0.0
06 19:55 NW 9 G 15 10.00 A Few Clouds FEW055 44.6 23 43% 40 29.97 0.0
06 19:35 NW 10 G 18 10.00 Partly Cloudy SCT055 44.6 23 43% 40 29.97 0.0
06 19:15 NW 14 10.00 Mostly Cloudy BKN055 46.4 23 40% 41 29.97 0.0
06 18:55 NW 14 10.00 Mostly Cloudy BKN055 46.4 23 40% 41 29.97 0.0
06 18:35 NW 15 G 23 10.00 Mostly Cloudy BKN055 46.4 23 40% 41 29.97 0.0
06 18:15 NW 13 G 18 10.00 Partly Cloudy SCT050 46.4 23 40% 41 29.97 0.0
06 17:55 NW 13 G 23 10.00 Partly Cloudy SCT050 46.4 23 40% 41 29.98 0.0
06 17:35 NW 17 G 23 10.00 Partly Cloudy SCT050 SCT055 46.4 23 40% 40 29.98 0.0
06 17:15 NW 14 10.00 Mostly Cloudy BKN050 44.6 23 43% 39 29.98 0.0
06 16:55 NW 14 G 21 10.00 Overcast OVC050 44.6 23 43% 39 29.98 0.0
06 16:35 NW 16 G 23 10.00 Overcast OVC050 44.6 23 43% 38 29.99 0.0
06 16:15 NW 14 G 22 10.00 Overcast OVC050 44.6 23 43% 39 29.99 0.0
06 15:55 NW 13 G 21 10.00 Overcast OVC050 42.8 23 46% 37 30 0.0
06 15:35 W 13 G 23 10.00 Overcast OVC050 42.8 23 46% 37 30 0.0
06 15:15 NW 18 10.00 Overcast OVC050 42.8 23 46% 35 30 0.0
06 14:55 NW 20 10.00 Overcast OVC050 42.8 23 46% 35 30 0.0
06 14:35 NW 17 10.00 Overcast BKN049 OVC055 42.8 23 46% 35 30 0.0
06 14:15 NW 16 G 23 10.00 Overcast OVC049 42.8 23 46% 36 30 0.0
06 13:55 W 14 10.00 Overcast BKN047 OVC050 42.8 23 46% 36 30.01 0.0
06 13:35 NW 17 9.00 Overcast OVC049 42.8 23 46% 35 30.01 0.0
06 13:15 NW 14 G 22 10.00 Overcast OVC049 41 23 49% 34 30.01 0.0
06 12:55 NW 13 G 21 10.00 Overcast OVC049 42.8 23 46% 37 30.01 0.0
06 12:35 W 16 G 24 10.00 Overcast OVC049 42.8 23 46% 36 30.01 0.0
06 12:15 NW 17 10.00 Overcast OVC049 42.8 23 46% 35 30.01 0.0
06 11:55 NW 16 G 23 10.00 Overcast OVC050 42.8 21.2 42% 36 30.01 0.0
06 11:35 NW 14 G 23 10.00 Overcast OVC049 41 21.2 45% 34 30.01 0.0
06 11:15 NW 18 G 25 10.00 Overcast BKN047 OVC050 41 21.2 45% 33 30.01 0.0
06 10:55 NW 14 G 21 10.00 Overcast OVC049 41 21.2 45% 34 30.01 0.0
06 10:35 NW 18 G 24 10.00 Overcast OVC050 41 21.2 45% 33 30 0.0
06 10:15 NW 14 G 24 10.00 Overcast BKN049 OVC055 41 21.2 45% 34 30 0.0
06 09:55 NW 14 G 22 10.00 Overcast FEW045 OVC050 41 21.2 45% 34 30 0.0
06 09:35 NW 17 10.00 Overcast FEW043 OVC050 41 23 49% 33 30 0.0
06 09:15 NW 14 G 21 10.00 Overcast OVC050 41 23 49% 34 30 0.0
06 08:55 NW 10 10.00 Mostly Cloudy BKN050 39.2 23 52% 33 30 0.0
06 08:35 NW 9 10.00 Fair CLR 39.2 23 52% 34 30 0.0
06 08:15 NW 7 10.00 Fair CLR 37.4 24.8 60% 33 29.99 0.0
06 07:55 NW 8 10.00 Fair CLR 37.4 24.8 60% 32 29.99 0.0
06 07:35 NW 8 10.00 Fair CLR 35.6 24.8 65% 30 29.98 0.0
06 07:15 NW 8 10.00 Fair CLR 33.8 24.8 70% 28 29.97 0.0
06 06:55 NW 7 10.00 Fair CLR 32 24.8 75% 26 29.96 0.0
06 06:35 NW 7 10.00 Fair CLR 32 24.8 75% 26 29.95 0.0
06 06:15 NW 7 10.00 NULL NULL 30.2 24.8 80% 24 29.96 0.0
06 05:55 NW 9 10.00 NULL NULL 30.2 24.8 80% 23 29.95 0.0
06 05:35 W 9 10.00 NULL NULL 30.2 24.8 80% 23 29.95 0.0
06 05:15 NW 8 10.00 NULL NULL 32 24.8 75% 25 29.94 0.0
06 04:55 NW 8 10.00 NULL NULL 32 24.8 75% 25 29.94 0.0
06 04:35 NW 10 10.00 NULL NULL 33.8 24.8 70% 26 29.94 0.0
06 04:15 NW 9 10.00 NULL NULL 33.8 24.8 70% 27 29.93 0.0
06 03:55 NW 9 10.00 NULL NULL 33.8 24.8 70% 27 29.93 0.0
06 03:35 NW 8 10.00 NULL NULL 33.8 24.8 70% 28 29.92 0.0
06 03:15 NW 8 10.00 NULL NULL 33.8 24.8 70% 28 29.92 0.0
06 02:55 NW 9 10.00 Fair CLR 33.8 24.8 70% 27 29.92 0.0
06 02:35 NW 8 10.00 Fair CLR 35.6 24.8 65% 30 29.92 0.0
06 02:15 NW 9 10.00 Fair CLR 35.6 24.8 65% 29 29.91 0.0
06 01:55 NW 9 10.00 Fair CLR 37.4 24.8 60% 31 29.9 0.0
06 01:35 NW 10 10.00 Fair CLR 37.4 24.8 60% 31 29.9 0.0
06 01:15 NW 12 10.00 Fair CLR 39.2 24.8 56% 33 29.9 0.0
06 00:55 NW 9 10.00 Fair CLR 39.2 24.8 56% 34 29.9 0.0
06 00:35 NW 10 10.00 Fair CLR 39.2 24.8 56% 33 29.9 0.0
06 00:15 NW 10 10.00 Fair CLR 39.2 24.8 56% 33 29.89 0.0
05 23:55 NW 9 10.00 Fair CLR 39.2 24.8 56% 34 29.89 0.0
05 23:35 NW 9 10.00 A Few Clouds FEW070 39.2 24.8 56% 34 29.89 0.0
05 23:15 NW 8 10.00 Mostly Cloudy BKN070 41 23 49% 36 29.88 0.0
05 22:55 W 8 10.00 Mostly Cloudy BKN065 BKN075 41 23 49% 36 29.88 0.0
05 22:35 NW 8 10.00 Mostly Cloudy SCT070 BKN080 41 24.8 53% 36 29.88 0.0
05 22:15 NW 7 10.00 Mostly Cloudy SCT065 BKN075 41 24.8 53% 37 29.88 0.0
05 21:55 NW 8 10.00 Mostly Cloudy BKN075 42.8 23 46% 39 29.88 0.0
05 21:35 NW 8 10.00 Overcast FEW060 OVC075 42.8 23 46% 39 29.87 0.0
05 21:15 NW 7 10.00 Overcast SCT070 OVC080 44.6 23 43% 41 29.86 0.0
05 20:55 NW 8 10.00 Overcast OVC075 44.6 23 43% 41 29.86 0.0
05 20:35 NW 8 10.00 Overcast OVC075 46.4 23 40% 43 29.85 0.0
05 20:15 NW 12 10.00 Overcast OVC075 46.4 23 40% 42 29.84 0.0
05 19:55 NW 10 G 18 10.00 Overcast OVC080 48.2 21.2 34% 44 29.84 0.0
05 19:35 NW 13 10.00 Overcast OVC075 48.2 23 37% 43 29.83 0.0
05 19:15 NW 12 G 20 10.00 Overcast OVC080 48.2 21.2 34% 44 29.83 0.0
05 18:55 NW 12 10.00 Overcast OVC080 50 21.2 32% 46 29.83 0.0
05 18:35 NW 14 G 22 10.00 Overcast OVC075 48.2 21.2 34% 43 29.82 0.0
05 18:15 NW 9 G 16 10.00 Overcast BKN065 OVC075 48.2 21.2 34% 45 29.83 0.0
05 17:55 NW 15 10.00 Overcast SCT065 OVC075 50 21.2 32% 45 29.82 0.0
05 17:35 NW 10 G 17 10.00 Overcast OVC070 50 23 35% 46 29.83 0.0
05 17:15 NW 16 G 22 10.00 Overcast OVC070 50 21.2 32% 45 29.83 0.0
05 16:55 NW 15 10.00 Overcast OVC070 50 23 35% 45 29.83 0.0
05 16:35 NW 15 G 24 10.00 Overcast OVC070 50 21.2 32% 45 29.83 0.0
05 16:15 NW 17 G 25 10.00 Overcast OVC075 50 21.2 32% 45 29.83 0.0
05 15:55 NW 17 10.00 Overcast OVC070 50 21.2 32% 45 29.83 0.0
05 15:35 NW 21 G 26 10.00 Overcast and Breezy SCT065 OVC075 51.8 23 32% 29.83 0.0
05 15:15 NW 17 G 25 10.00 Overcast BKN065 OVC075 50 21.2 32% 45 29.83 0.0
05 14:55 N 16 G 23 10.00 Overcast BKN060 OVC075 50 21.2 32% 45 29.84 0.0
05 14:35 NW 16 10.00 Overcast BKN060 OVC070 50 23 35% 45 29.84 0.0
05 14:15 NW 20 G 30 10.00 Overcast BKN065 OVC075 50 23 35% 44 29.84 0.0
05 13:55 NW 10 G 21 10.00 Overcast OVC065 50 23 35% 46 29.84 0.0
05 13:35 W 17 10.00 Overcast BKN060 OVC070 50 23 35% 45 29.84 0.0
05 13:15 W 18 10.00 Overcast BKN060 OVC070 50 23 35% 44 29.84 0.0
05 12:55 W 14 10.00 Mostly Cloudy BKN060 BKN070 48.2 23 37% 43 29.84 0.0
05 12:35 NW 14 G 22 10.00 Mostly Cloudy BKN060 48.2 21.2 34% 43 29.84 0.0
05 12:15 NW 15 G 24 10.00 Mostly Cloudy BKN060 BKN065 48.2 23 37% 43 29.84 0.0
05 11:55 NW 15 G 22 10.00 Mostly Cloudy BKN055 BKN065 48.2 23 37% 43 29.84 0.0
05 11:35 NW 17 G 24 10.00 Mostly Cloudy BKN055 BKN070 48.2 23 37% 42 29.84 0.0
05 11:15 NW 15 10.00 Mostly Cloudy SCT055 BKN070 48.2 23 37% 43 29.84 0.0
05 10:55 W 15 10.00 A Few Clouds FEW055 46.4 23 40% 41 29.85 0.0
05 10:35 NW 14 10.00 Fair CLR 46.4 23 40% 41 29.84 0.0
05 10:15 NW 15 G 22 10.00 A Few Clouds FEW055 46.4 23 40% 41 29.83 0.0
05 09:55 Vrbl 7 G 16 10.00 Fair CLR 44.6 23 43% 41 29.83 0.0
05 09:35 NW 12 10.00 Fair CLR 44.6 23 43% 39 29.83 0.0
05 09:15 N 8 10.00 Fair CLR 42.8 24.8 49% 39 29.83 0.0
05 08:55 N 7 G 17 10.00 Fair CLR 42.8 24.8 49% 39 29.83 0.0
05 08:35 N 10 10.00 Fair CLR 42.8 26.6 53% 38 29.83 0.0
05 08:15 NW 10 10.00 Fair CLR 41 26.6 57% 35 29.84 0.0
05 07:55 NW 10 G 16 10.00 Fair CLR 41 26.6 57% 35 29.83 0.0
05 07:35 NW 10 10.00 Fair CLR 41 26.6 57% 35 29.82 0.0
05 07:15 NW 9 10.00 Fair CLR 39.2 26.6 61% 34 29.81 0.0
05 06:55 W 8 10.00 Fair CLR 39.2 26.6 61% 34 29.8 0.0
05 06:35 W 8 10.00 Fair CLR 35.6 26.6 70% 30 29.79 0.0
05 06:15 W 7 10.00 Fair CLR 35.6 24.8 65% 31 29.78 0.0
05 05:55 W 7 10.00 Fair CLR 37.4 24.8 60% 33 29.77 0.0
05 05:35 W 7 10.00 Fair CLR 37.4 24.8 60% 33 29.76 0.0
05 05:15 NW 7 10.00 Fair CLR 37.4 24.8 60% 33 29.76 0.0
Date Time (cdt) Wind (mph) Vis. (mi.) Weather Sky Cond. Air Dwpt Max. Min. Relative Humidity Wind Chill (°F) Heat Index (°F) altimeter (in) sea level (mb) 1 hr 3 hr 6 hr
6 hour
Temperature (ºF) Pressure Precipitation (in)